RCSS/TSA METAR and TAF weather

Enter ICAO airport designator
Station Type Date Time Source
RCSS METAR 2022/01/26 19:00 UTC NOAA

RCSS 261900Z 29005KT 6000 SCT010 BKN018 BKN030 19/18 Q1017 NOSIG RMK A3004


Station Type Date Time Source
RCSS Decoded METAR 2022/01/26 19:00 UTC NOAA

Sungshan / Taipei, Taiwan (RCSS) 25-04N 121-33E
Jan 26, 2022 - 02:00 PM EST / 2022.01.26 1900 UTC
Wind: from the WNW (290 degrees) at 6 MPH (5 KT):0
Visibility: 3 mile(s):0
Sky conditions: mostly cloudy
Temperature: 66 F (19 C)
Dew Point: 64 F (18 C)
Relative Humidity: 93%
Pressure (altimeter): 30.03 in. Hg (1017 hPa)
ob: RCSS 261900Z 29005KT 6000 SCT010 BKN018 BKN030 19/18 Q1017 NOSIG RMK A3004
cycle: 19

Station Type Date Time Source
RCSS TAF 2022/01/26 18:03 UTC NOAA

TAF RCSS 261700Z 2618/2718 09005KT 8000 FEW020 BKN032
TEMPO 2618/2624 VRB05KT 4000 BR FEW008 BKN012
TEMPO 2712/2718 08010KT FEW012 BKN020 BKN040

Example: see airport list